createdAt,value
2017-06-05T00:02:07.331Z,8.30
2017-06-05T00:04:34.887Z,7.70
2017-06-05T00:07:02.439Z,8.70
2017-06-05T00:09:29.947Z,9.20
2017-06-05T00:11:57.499Z,9.23
2017-06-05T00:14:25.013Z,8.00
2017-06-05T00:16:52.527Z,8.90
2017-06-05T00:19:20.115Z,9.50
2017-06-05T00:21:47.626Z,9.00
2017-06-05T00:24:15.127Z,9.27
2017-06-05T00:26:42.687Z,9.23
2017-06-05T00:29:10.198Z,8.97
2017-06-05T00:31:37.722Z,10.20
2017-06-05T00:34:05.334Z,10.13
2017-06-05T00:36:32.847Z,9.50
2017-06-05T00:39:00.356Z,9.23
2017-06-05T00:41:27.703Z,9.70
2017-06-05T00:43:55.210Z,8.50
2017-06-05T00:46:22.727Z,11.07
2017-06-05T00:48:50.423Z,8.73
2017-06-05T00:51:17.927Z,9.50
2017-06-05T00:53:45.432Z,10.27
2017-06-05T00:56:13.023Z,10.97
2017-06-05T00:58:40.535Z,9.70
2017-06-05T01:01:08.052Z,10.63
2017-06-05T01:03:35.639Z,10.57
2017-06-05T01:06:03.143Z,8.70
2017-06-05T01:08:30.651Z,10.57
2017-06-05T01:10:58.212Z,10.60
2017-06-05T01:13:25.728Z,10.50
2017-06-05T01:15:53.272Z,9.80
2017-06-05T01:18:20.835Z,9.63
2017-06-05T01:20:48.346Z,10.57
2017-06-05T01:23:15.856Z,9.70
2017-06-05T01:25:43.520Z,8.97
2017-06-05T01:28:11.063Z,9.87
2017-06-05T01:30:38.571Z,10.53
2017-06-05T01:33:06.140Z,9.10
2017-06-05T01:35:33.638Z,9.67
2017-06-05T01:38:01.159Z,11.50
2017-06-05T01:40:28.736Z,8.47
2017-06-05T01:42:56.892Z,9.77
2017-06-05T01:45:24.447Z,9.83
2017-06-05T01:47:52.013Z,9.93
2017-06-05T01:50:19.523Z,9.30
2017-06-05T01:52:47.030Z,9.77
2017-06-05T01:55:14.636Z,10.73
2017-06-05T01:57:42.159Z,9.70
2017-06-05T02:00:09.663Z,8.03
2017-06-05T02:02:37.499Z,9.87
2017-06-05T02:05:05.016Z,10.20
2017-06-05T02:07:32.520Z,9.53
2017-06-05T02:10:00.209Z,10.37
2017-06-05T02:12:27.715Z,9.97
2017-06-05T02:14:55.220Z,9.23
2017-06-05T02:17:22.779Z,10.47
2017-06-05T02:19:50.282Z,10.10
2017-06-05T02:22:17.787Z,8.10
2017-06-05T02:24:45.366Z,8.70
2017-06-05T02:27:12.867Z,8.23
2017-06-05T02:29:40.375Z,8.90
2017-06-05T02:32:07.940Z,9.00
2017-06-05T02:34:35.456Z,8.53
2017-06-05T02:37:02.964Z,9.77
2017-06-05T02:39:30.584Z,10.77
2017-06-05T02:41:58.107Z,9.40
2017-06-05T02:44:25.683Z,9.70
2017-06-05T02:46:53.230Z,9.90
2017-06-05T02:49:20.759Z,10.40
2017-06-05T02:51:48.267Z,10.00
2017-06-05T02:54:15.847Z,10.47
2017-06-05T02:56:43.355Z,11.10
2017-06-05T02:59:10.867Z,11.00
2017-06-05T03:01:38.873Z,10.50
2017-06-05T03:04:06.672Z,10.37
2017-06-05T03:06:34.603Z,10.57
2017-06-05T03:09:02.185Z,10.83
2017-06-05T03:11:30.315Z,10.87
2017-06-05T03:13:57.825Z,10.30
2017-06-05T03:16:25.659Z,9.57
2017-06-05T03:18:53.168Z,9.23
2017-06-05T03:21:20.720Z,8.53
2017-06-05T03:23:47.900Z,9.70
2017-06-05T03:26:15.408Z,8.43
2017-06-05T03:28:42.968Z,8.63
2017-06-05T03:31:10.633Z,8.47
2017-06-05T03:33:38.182Z,9.23
2017-06-05T03:36:05.734Z,9.57
2017-06-05T03:38:33.536Z,9.50
2017-06-05T03:41:01.083Z,9.20
2017-06-05T03:43:28.595Z,9.67
2017-06-05T03:45:56.171Z,9.20
2017-06-05T03:48:23.675Z,10.00
2017-06-05T03:50:51.219Z,8.80
2017-06-05T03:53:19.041Z,8.70
2017-06-05T03:55:46.559Z,9.40
2017-06-05T03:58:14.096Z,9.87
2017-06-05T04:00:41.654Z,9.70
2017-06-05T04:03:09.167Z,8.70
2017-06-05T04:05:36.688Z,7.70
2017-06-05T04:08:04.725Z,8.57
2017-06-05T04:10:32.232Z,8.87
2017-06-05T04:12:59.731Z,8.30
2017-06-05T04:15:27.285Z,9.47
2017-06-05T04:17:54.800Z,9.80
2017-06-05T04:20:22.343Z,7.43
2017-06-05T04:22:49.925Z,8.47
2017-06-05T04:25:17.431Z,8.70
2017-06-05T04:27:44.940Z,7.90
2017-06-05T04:30:12.591Z,7.93
2017-06-05T04:32:40.114Z,7.47
2017-06-05T04:35:07.626Z,7.80
2017-06-05T04:37:35.576Z,7.27
2017-06-05T04:40:03.087Z,7.23
2017-06-05T04:42:30.596Z,7.73
2017-06-05T04:44:58.400Z,6.40
2017-06-05T04:47:25.939Z,7.63
2017-06-05T04:49:53.455Z,6.40
2017-06-05T04:52:21.307Z,7.33
2017-06-05T04:54:48.914Z,7.10
2017-06-05T04:57:16.452Z,6.97
2017-06-05T04:59:44.031Z,7.80
2017-06-05T05:02:11.576Z,7.70
2017-06-05T05:04:39.119Z,7.33
2017-06-05T05:07:06.653Z,7.73
2017-06-05T05:09:34.163Z,7.57
2017-06-05T05:12:01.963Z,7.03
2017-06-05T05:14:29.547Z,7.63
2017-06-05T05:16:57.607Z,8.57
2017-06-05T05:19:25.470Z,7.87
2017-06-05T05:21:52.979Z,7.37
2017-06-05T05:24:20.477Z,8.27
2017-06-05T05:26:48.449Z,7.70
2017-06-05T05:29:15.967Z,7.60
2017-06-05T05:31:43.514Z,7.87
2017-06-05T05:34:11.084Z,7.97
2017-06-05T05:36:38.599Z,7.10
2017-06-05T05:39:06.150Z,8.03
2017-06-05T05:41:33.712Z,9.23
2017-06-05T05:44:01.212Z,8.60
2017-06-05T05:46:28.904Z,9.20
2017-06-05T05:48:56.743Z,8.23
2017-06-05T05:51:24.250Z,8.17
2017-06-05T05:53:51.755Z,7.73
2017-06-05T05:56:19.391Z,7.27
2017-06-05T05:58:46.912Z,8.17
2017-06-05T06:01:14.420Z,8.80
2017-06-05T06:03:42.276Z,8.37
2017-06-05T06:06:09.784Z,9.23
2017-06-05T06:08:37.291Z,8.80
2017-06-05T06:11:05.200Z,9.63
2017-06-05T06:13:32.707Z,8.20
2017-06-05T06:16:00.275Z,8.87
2017-06-05T06:18:28.112Z,8.57
2017-06-05T06:20:55.630Z,8.30
2017-06-05T06:23:23.139Z,10.20
2017-06-05T06:25:50.951Z,9.80
2017-06-05T06:28:18.464Z,10.43
2017-06-05T06:30:46.496Z,10.10
2017-06-05T06:33:14.613Z,9.33
2017-06-05T06:35:42.408Z,9.10
2017-06-05T06:38:10.078Z,10.03
2017-06-05T06:40:37.631Z,8.80
2017-06-05T06:43:05.163Z,10.07
2017-06-05T06:45:32.800Z,10.90
2017-06-05T06:48:00.620Z,10.07
2017-06-05T06:50:28.127Z,10.33
2017-06-05T06:52:55.689Z,9.53
2017-06-05T06:55:23.303Z,10.10
2017-06-05T06:57:50.819Z,10.43
2017-06-05T07:00:18.335Z,9.90
2017-06-05T07:02:46.547Z,9.57
2017-06-05T07:05:14.061Z,9.07
2017-06-05T07:07:41.582Z,8.47
2017-06-05T07:10:09.415Z,9.37
2017-06-05T07:12:36.923Z,9.97
2017-06-05T07:15:04.428Z,8.63
2017-06-05T07:17:32.054Z,9.83
2017-06-05T07:19:59.571Z,9.40
2017-06-05T07:22:27.087Z,9.60
2017-06-05T07:24:54.971Z,9.70
2017-06-05T07:27:22.476Z,9.40
2017-06-05T07:29:49.984Z,9.87
2017-06-05T07:32:17.536Z,11.40
2017-06-05T07:34:45.063Z,11.53
2017-06-05T07:37:12.604Z,10.10
2017-06-05T07:39:40.195Z,10.37
2017-06-05T07:42:07.706Z,12.30
2017-06-05T07:44:35.232Z,11.07
2017-06-05T07:47:03.595Z,12.23
2017-06-05T07:49:31.140Z,11.97
2017-06-05T07:51:58.657Z,12.60
2017-06-05T07:54:26.227Z,11.97
2017-06-05T07:56:53.743Z,12.50
2017-06-05T07:59:21.290Z,11.90
2017-06-05T08:01:49.147Z,13.17
2017-06-05T08:04:16.659Z,13.37
2017-06-05T08:06:44.416Z,11.53
2017-06-05T08:09:12.144Z,11.70
2017-06-05T08:11:39.671Z,11.07
2017-06-05T08:14:07.272Z,11.13
2017-06-05T08:16:34.820Z,12.33
2017-06-05T08:19:02.332Z,12.10
2017-06-05T08:21:29.848Z,13.33
2017-06-05T08:23:57.715Z,12.13
2017-06-05T08:26:25.235Z,12.67
2017-06-05T08:28:52.851Z,12.80
2017-06-05T08:31:20.755Z,11.57
2017-06-05T08:33:48.269Z,10.90
2017-06-05T08:36:15.803Z,12.20
2017-06-05T08:38:43.485Z,12.53
2017-06-05T08:41:11.387Z,10.27
2017-06-05T08:43:38.898Z,10.70
2017-06-05T08:46:06.419Z,11.67
2017-06-05T08:48:33.983Z,10.97
2017-06-05T08:51:02.007Z,11.00
2017-06-05T08:53:29.519Z,11.53
2017-06-05T08:55:57.146Z,11.60
2017-06-05T08:58:24.771Z,10.70
2017-06-05T09:00:52.277Z,11.37
2017-06-05T09:03:20.108Z,10.93
2017-06-05T09:05:47.631Z,10.60
2017-06-05T09:08:15.144Z,9.63
2017-06-05T09:10:42.719Z,10.13
2017-06-05T09:13:10.162Z,9.90
2017-06-05T09:15:37.797Z,12.40
2017-06-05T09:18:05.731Z,10.57
2017-06-05T09:20:33.237Z,10.30
2017-06-05T09:23:00.752Z,11.47
2017-06-05T09:25:28.298Z,11.33
2017-06-05T09:27:55.889Z,12.83
2017-06-05T09:30:23.402Z,11.43
2017-06-05T09:32:50.975Z,12.90
2017-06-05T09:35:18.623Z,11.93
2017-06-05T09:37:46.179Z,12.43
2017-06-05T09:40:13.752Z,12.07
2017-06-05T09:42:41.262Z,12.63
2017-06-05T09:45:08.776Z,13.03
2017-06-05T09:47:36.469Z,12.80
2017-06-05T09:50:04.028Z,11.80
2017-06-05T09:52:31.532Z,12.50
2017-06-05T09:54:59.350Z,13.00
2017-06-05T09:57:27.439Z,11.70
2017-06-05T09:59:54.784Z,14.00
2017-06-05T10:02:22.291Z,13.53
2017-06-05T10:04:50.554Z,13.50
2017-06-05T10:07:18.206Z,14.87
2017-06-05T10:09:45.722Z,14.37
2017-06-05T10:12:13.760Z,12.73
2017-06-05T10:14:41.072Z,13.23
2017-06-05T10:17:08.581Z,14.23
2017-06-05T10:19:36.092Z,14.50
2017-06-05T10:22:03.924Z,14.10
2017-06-05T10:24:31.523Z,15.47
2017-06-05T10:26:59.320Z,13.90
2017-06-05T10:29:27.247Z,12.50
2017-06-05T10:31:54.758Z,14.97
2017-06-05T10:34:22.263Z,13.67
2017-06-05T10:36:50.079Z,14.50
2017-06-05T10:39:17.590Z,12.17
2017-06-05T10:41:45.103Z,12.63
2017-06-05T10:44:12.671Z,11.97
2017-06-05T10:46:40.307Z,11.70
2017-06-05T10:49:07.895Z,11.10
2017-06-05T10:51:35.454Z,13.23
2017-06-05T10:54:02.955Z,9.17
2017-06-05T10:56:30.515Z,10.90
2017-06-05T10:58:58.384Z,12.20
2017-06-05T11:01:25.891Z,12.13
2017-06-05T11:03:53.395Z,11.80
2017-06-05T11:06:21.205Z,10.63
2017-06-05T11:08:48.715Z,10.30
2017-06-05T11:11:16.225Z,9.30
2017-06-05T11:13:43.871Z,9.17
2017-06-05T11:16:11.423Z,8.60
2017-06-05T11:18:38.998Z,9.10
2017-06-05T11:21:06.808Z,7.70
2017-06-05T11:23:34.324Z,7.97
2017-06-05T11:26:01.839Z,7.70
2017-06-05T11:28:29.447Z,7.87
2017-06-05T11:30:57.429Z,8.80
2017-06-05T11:33:24.947Z,8.87
2017-06-05T11:35:52.459Z,7.67
2017-06-05T11:38:20.036Z,6.60
2017-06-05T11:40:47.553Z,5.57
2017-06-05T11:43:15.083Z,5.53
2017-06-05T11:45:42.662Z,6.43
2017-06-05T11:48:10.164Z,6.07
2017-06-05T11:50:37.705Z,6.63
2017-06-05T11:53:05.328Z,8.03
2017-06-05T11:55:32.843Z,8.57
2017-06-05T11:58:00.359Z,8.40
2017-06-05T12:00:28.197Z,9.73
2017-06-05T12:02:55.720Z,8.83
2017-06-05T12:05:23.235Z,7.83
2017-06-05T12:07:50.792Z,8.53
2017-06-05T12:10:18.340Z,9.10
2017-06-05T12:12:47.042Z,9.00
2017-06-05T12:15:14.985Z,8.20
2017-06-05T12:17:43.031Z,8.57
2017-06-05T12:20:10.704Z,8.13
2017-06-05T12:22:38.271Z,8.37
2017-06-05T12:25:05.797Z,9.03
2017-06-05T12:27:34.016Z,9.80
2017-06-05T12:30:02.534Z,9.20
2017-06-05T12:32:30.047Z,8.47
2017-06-05T12:34:58.091Z,8.30
2017-06-05T12:37:25.667Z,9.23
2017-06-05T12:39:53.235Z,8.00
2017-06-05T12:42:21.109Z,8.10
2017-06-05T12:44:49.339Z,9.07
2017-06-05T12:47:16.847Z,10.00
2017-06-05T12:49:44.447Z,9.03
2017-06-05T12:52:12.012Z,9.03
2017-06-05T12:54:40.083Z,9.87
2017-06-05T12:57:07.603Z,9.23
2017-06-05T12:59:35.260Z,10.37
2017-06-05T13:02:02.843Z,8.50
2017-06-05T13:04:30.503Z,9.43
2017-06-05T13:06:58.043Z,8.43
2017-06-05T13:09:25.947Z,8.30
2017-06-05T13:11:53.463Z,8.93
2017-06-05T13:14:20.983Z,9.07
2017-06-05T13:16:49.099Z,8.90
2017-06-05T13:19:17.047Z,9.23
2017-06-05T13:21:44.563Z,8.17
2017-06-05T13:24:12.078Z,7.20
2017-06-05T13:26:39.475Z,10.00
2017-06-05T13:29:06.983Z,8.70
2017-06-05T13:31:35.147Z,8.20
2017-06-05T13:34:02.796Z,8.83
2017-06-05T13:36:30.420Z,9.00
2017-06-05T13:38:57.988Z,8.47
2017-06-05T13:41:25.520Z,9.43
2017-06-05T13:43:53.032Z,9.20
2017-06-05T13:46:20.923Z,9.43
2017-06-05T13:48:48.494Z,8.53
2017-06-05T13:51:16.007Z,9.00
2017-06-05T13:53:44.111Z,8.40
2017-06-05T13:56:11.694Z,9.00
2017-06-05T13:58:39.203Z,8.23
2017-06-05T14:01:07.103Z,9.37
2017-06-05T14:03:34.603Z,7.77
2017-06-05T14:06:02.112Z,8.57
2017-06-05T14:08:30.321Z,8.80
2017-06-05T14:10:57.927Z,8.57
2017-06-05T14:13:26.431Z,7.93
2017-06-05T14:15:54.431Z,8.17
2017-06-05T14:18:21.942Z,9.00
2017-06-05T14:20:49.847Z,9.67
2017-06-05T14:23:17.364Z,9.23
2017-06-05T14:25:45.779Z,10.10
2017-06-05T14:28:13.183Z,8.80
2017-06-05T14:30:41.447Z,9.77
2017-06-05T14:33:08.958Z,8.23
2017-06-05T14:35:36.511Z,9.03
2017-06-05T14:38:04.014Z,7.40
2017-06-05T14:40:31.516Z,8.57
2017-06-05T14:42:59.147Z,7.80
2017-06-05T14:45:26.727Z,8.47
2017-06-05T14:47:54.235Z,9.30
2017-06-05T14:50:21.791Z,8.00
2017-06-05T14:52:49.292Z,7.17
2017-06-05T14:55:16.822Z,7.30
2017-06-05T14:57:45.255Z,8.57
2017-06-05T15:00:12.760Z,8.53
2017-06-05T15:02:40.279Z,10.10
2017-06-05T15:05:07.904Z,8.53
2017-06-05T15:07:35.455Z,7.27
2017-06-05T15:10:02.972Z,8.97
2017-06-05T15:12:30.567Z,9.30
2017-06-05T15:14:58.120Z,7.93
2017-06-05T15:17:25.697Z,9.10
2017-06-05T15:19:53.259Z,9.63
2017-06-05T15:22:20.761Z,9.97
2017-06-05T15:24:48.301Z,9.20
2017-06-05T15:27:15.883Z,9.70
2017-06-05T15:29:43.383Z,8.93
2017-06-05T15:32:10.887Z,9.63
2017-06-05T15:34:38.712Z,8.30
2017-06-05T15:37:06.227Z,8.43
2017-06-05T15:39:33.731Z,8.27
2017-06-05T15:42:01.399Z,9.20
2017-06-05T15:44:28.907Z,9.43
2017-06-05T15:46:56.290Z,10.27
2017-06-05T15:49:23.880Z,9.10
2017-06-05T15:51:51.390Z,8.53
2017-06-05T15:54:18.889Z,7.80
2017-06-05T15:56:46.727Z,9.50
2017-06-05T15:59:14.240Z,8.50
2017-06-05T16:01:41.787Z,7.20
2017-06-05T16:04:09.374Z,7.73
2017-06-05T16:06:36.877Z,6.83
2017-06-05T16:09:04.403Z,7.67
2017-06-05T16:11:32.049Z,7.17
2017-06-05T16:13:59.610Z,7.60
2017-06-05T16:16:27.107Z,6.30
2017-06-05T16:18:54.656Z,6.60
2017-06-05T16:21:22.199Z,7.87
2017-06-05T16:23:49.816Z,7.60
2017-06-05T16:26:17.370Z,8.57
2017-06-05T16:28:44.942Z,8.00
2017-06-05T16:31:12.448Z,8.03
2017-06-05T16:33:40.042Z,20.40
2017-06-05T16:36:07.587Z,8.50
2017-06-05T16:38:35.106Z,9.03
2017-06-05T16:41:02.691Z,7.67
2017-06-05T16:43:30.265Z,8.20
2017-06-05T16:45:57.779Z,10.67
2017-06-05T16:48:25.676Z,9.57
2017-06-05T16:50:53.187Z,10.00
2017-06-05T16:53:20.692Z,8.13
2017-06-05T16:55:48.575Z,8.40
2017-06-05T16:58:16.091Z,9.33
2017-06-05T17:00:43.598Z,9.00
2017-06-05T17:03:11.391Z,9.00
2017-06-05T17:05:39.379Z,9.30
2017-06-05T17:08:06.919Z,8.50
2017-06-05T17:10:34.567Z,8.83
2017-06-05T17:13:02.090Z,7.93
2017-06-05T17:15:29.683Z,7.60
2017-06-05T17:17:57.241Z,9.60
2017-06-05T17:20:24.763Z,7.87
2017-06-05T17:22:52.264Z,8.40
2017-06-05T17:25:19.816Z,7.80
2017-06-05T17:27:47.407Z,9.03
2017-06-05T17:30:14.937Z,8.23
2017-06-05T17:32:42.697Z,9.17
2017-06-05T17:35:10.207Z,10.47
2017-06-05T17:37:37.716Z,9.50
2017-06-05T17:40:05.272Z,8.13
2017-06-05T17:42:32.773Z,9.47
2017-06-05T17:45:00.275Z,8.70
2017-06-05T17:47:27.883Z,8.50
2017-06-05T17:49:55.399Z,8.33
2017-06-05T17:52:22.907Z,8.90
2017-06-05T17:54:50.657Z,8.70
2017-06-05T17:57:18.174Z,7.90
2017-06-05T17:59:45.675Z,8.60
2017-06-05T18:02:13.278Z,7.73
2017-06-05T18:04:40.792Z,9.33
2017-06-05T18:07:08.335Z,8.77
2017-06-05T18:09:35.901Z,10.00
2017-06-05T18:12:03.418Z,9.67
2017-06-05T18:14:30.934Z,8.80
2017-06-05T18:16:58.571Z,8.93
2017-06-05T18:19:26.087Z,8.47
2017-06-05T18:21:53.583Z,7.53
2017-06-05T18:24:22.083Z,8.47
2017-06-05T18:26:49.584Z,8.40
2017-06-05T18:29:17.147Z,8.47
2017-06-05T18:31:44.712Z,7.40
2017-06-05T18:34:12.218Z,7.60
2017-06-05T18:36:39.903Z,8.03
2017-06-05T18:39:07.447Z,8.37
2017-06-05T18:41:34.948Z,8.43
2017-06-05T18:44:02.448Z,7.43
2017-06-05T18:46:30.167Z,8.10
2017-06-05T18:48:57.678Z,8.53
2017-06-05T18:51:25.291Z,9.90
2017-06-05T18:53:53.171Z,8.93
2017-06-05T18:56:20.685Z,9.33
2017-06-05T18:58:48.261Z,9.10
2017-06-05T19:01:16.192Z,8.67
2017-06-05T19:03:43.771Z,8.60
2017-06-05T19:06:11.271Z,9.80
2017-06-05T19:08:39.270Z,8.87
2017-06-05T19:11:07.083Z,9.10
2017-06-05T19:13:34.619Z,8.40
2017-06-05T19:16:02.264Z,8.83
2017-06-05T19:18:29.971Z,8.53
2017-06-05T19:20:57.783Z,8.40
2017-06-05T19:23:26.192Z,8.80
2017-06-05T19:25:53.699Z,10.00
2017-06-05T19:28:21.480Z,9.57
2017-06-05T19:30:48.983Z,9.10
2017-06-05T19:33:16.567Z,9.23
2017-06-05T19:35:44.411Z,10.40
2017-06-05T19:38:12.487Z,9.67
2017-06-05T19:40:40.010Z,10.37
2017-06-05T19:43:07.894Z,10.17
2017-06-05T19:45:35.411Z,10.30
2017-06-05T19:48:03.054Z,11.77
2017-06-05T19:50:30.655Z,11.13
2017-06-05T19:52:58.171Z,9.37
2017-06-05T19:55:25.688Z,10.30
2017-06-05T19:57:53.363Z,13.23
2017-06-05T20:00:20.871Z,12.30
2017-06-05T20:02:48.617Z,12.63
2017-06-05T20:05:16.203Z,16.93
2017-06-05T20:07:43.710Z,13.60
2017-06-05T20:10:11.215Z,13.13
2017-06-05T20:12:38.787Z,13.33
2017-06-05T20:15:06.377Z,12.63
2017-06-05T20:17:33.883Z,12.53
2017-06-05T20:20:01.788Z,12.43
2017-06-05T20:22:29.315Z,13.20
2017-06-05T20:24:56.831Z,15.47
2017-06-05T20:27:24.487Z,15.87
2017-06-05T20:29:51.995Z,16.37
2017-06-05T20:32:19.502Z,15.60
2017-06-05T20:34:48.045Z,16.27
2017-06-05T20:37:15.581Z,16.10
2017-06-05T20:39:43.336Z,17.33
2017-06-05T20:42:10.964Z,17.13
2017-06-05T20:44:38.496Z,19.67
2017-06-05T20:47:06.775Z,18.10
2017-06-05T20:49:35.392Z,20.13
2017-06-05T20:52:02.992Z,18.13
2017-06-05T20:54:30.505Z,19.20
2017-06-05T20:56:58.111Z,17.47
2017-06-05T20:59:25.740Z,20.03
2017-06-05T21:01:53.398Z,19.10
2017-06-05T21:04:21.071Z,18.97
2017-06-05T21:06:48.585Z,20.23
2017-06-05T21:09:16.113Z,19.00
2017-06-05T21:11:44.123Z,19.53
2017-06-05T21:14:12.239Z,19.40
2017-06-05T21:16:39.887Z,19.50
2017-06-05T21:19:07.902Z,21.40
2017-06-05T21:21:35.487Z,20.47
2017-06-05T21:24:03.027Z,18.50
2017-06-05T21:26:30.984Z,19.87
2017-06-05T21:28:58.491Z,19.77
2017-06-05T21:31:26.564Z,19.60
2017-06-05T21:33:54.467Z,20.93
2017-06-05T21:36:21.999Z,19.33
2017-06-05T21:38:49.511Z,21.93
2017-06-05T21:41:17.083Z,22.90
2017-06-05T21:43:44.594Z,20.20
2017-06-05T21:46:12.143Z,24.10
2017-06-05T21:48:40.019Z,20.60
2017-06-05T21:51:07.804Z,19.57
2017-06-05T21:53:35.371Z,17.27
2017-06-05T21:56:02.955Z,19.60
2017-06-05T21:58:30.471Z,20.00
2017-06-05T22:00:58.019Z,21.17
2017-06-05T22:03:25.636Z,20.57
2017-06-05T22:05:53.172Z,20.60
2017-06-05T22:08:20.696Z,21.70
2017-06-05T22:10:48.257Z,21.63
2017-06-05T22:13:15.836Z,22.03
2017-06-05T22:15:43.351Z,19.43
2017-06-05T22:18:11.287Z,21.47
2017-06-05T22:20:38.849Z,23.40
2017-06-05T22:23:06.434Z,24.27
2017-06-05T22:25:33.998Z,21.70
2017-06-05T22:28:01.545Z,22.17
2017-06-05T22:30:29.179Z,23.20
2017-06-05T22:32:56.768Z,25.10
2017-06-05T22:35:24.271Z,24.77
2017-06-05T22:37:51.780Z,22.90
2017-06-05T22:40:19.594Z,25.07
2017-06-05T22:42:47.108Z,22.17
2017-06-05T22:45:14.612Z,22.07
2017-06-05T22:47:42.439Z,24.23
2017-06-05T22:50:10.151Z,23.20
2017-06-05T22:52:37.667Z,23.70
2017-06-05T22:55:05.311Z,23.27
2017-06-05T22:57:32.820Z,24.43
2017-06-05T23:00:00.404Z,24.93
2017-06-05T23:02:27.972Z,25.27
2017-06-05T23:04:55.510Z,24.67
2017-06-05T23:07:23.079Z,27.23
2017-06-05T23:09:50.927Z,23.73
2017-06-05T23:12:18.518Z,22.20
2017-06-05T23:14:46.069Z,23.30
2017-06-05T23:17:13.919Z,24.97
2017-06-05T23:19:41.591Z,25.47
2017-06-05T23:22:09.163Z,23.57
2017-06-05T23:24:37.023Z,25.10
2017-06-05T23:27:04.539Z,27.20
2017-06-05T23:29:32.055Z,24.37
2017-06-05T23:31:59.623Z,29.83
2017-06-05T23:34:27.133Z,26.90
2017-06-05T23:36:54.702Z,28.57
2017-06-05T23:39:22.550Z,29.27
2017-06-05T23:41:50.079Z,32.10
2017-06-05T23:44:17.685Z,39.80
2017-06-05T23:46:45.243Z,36.10
2017-06-05T23:49:12.791Z,38.13
2017-06-05T23:51:40.306Z,44.40
2017-06-05T23:54:08.127Z,41.47
2017-06-05T23:56:35.631Z,35.30
2017-06-05T23:59:03.147Z,42.07
